createdAt,value
2023-05-09T00:00:24.892Z,102000.16
2023-05-09T00:02:51.685Z,102001.84
2023-05-09T00:05:18.522Z,101997.22
2023-05-09T00:07:45.147Z,101999.06
2023-05-09T00:10:11.593Z,101993.88
2023-05-09T00:12:38.280Z,101995.41
2023-05-09T00:15:08.061Z,101992.06
2023-05-09T00:17:36.506Z,101989.00
2023-05-09T00:20:05.131Z,101988.00
2023-05-09T00:22:31.871Z,101982.44
2023-05-09T00:24:58.263Z,101980.06
2023-05-09T00:27:24.852Z,101975.59
2023-05-09T00:29:51.360Z,101974.63
2023-05-09T00:32:18.079Z,101969.72
2023-05-09T00:34:44.563Z,101976.44
2023-05-09T00:37:11.501Z,101972.81
2023-05-09T00:39:37.943Z,101970.59
2023-05-09T00:42:04.755Z,101962.63
2023-05-09T00:44:31.259Z,101954.81
2023-05-09T00:46:58.427Z,101942.69
2023-05-09T00:49:24.882Z,101944.19
2023-05-09T00:51:51.720Z,101941.97
2023-05-09T00:54:18.224Z,101938.19
2023-05-09T00:56:45.252Z,101934.28
2023-05-09T00:59:11.843Z,101925.34
2023-05-09T01:01:38.688Z,101915.59
2023-05-09T01:04:05.430Z,101922.88
2023-05-09T01:06:50.454Z,101924.41
2023-05-09T01:09:42.828Z,101913.94
2023-05-09T01:12:21.437Z,101914.06
2023-05-09T01:15:09.654Z,101902.88
2023-05-09T01:17:57.942Z,101907.38
2023-05-09T01:20:34.111Z,101906.66
2023-05-09T01:23:25.526Z,101910.84
2023-05-09T01:26:03.066Z,101907.63
2023-05-09T01:29:03.782Z,101902.56
2023-05-09T01:31:33.079Z,101910.09
2023-05-09T01:34:02.848Z,101903.28
2023-05-09T01:36:32.853Z,101901.88
2023-05-09T01:38:59.820Z,101896.28
2023-05-09T01:41:30.556Z,101893.91
2023-05-09T01:44:02.018Z,101900.44
2023-05-09T01:46:29.314Z,101893.75
2023-05-09T01:48:57.440Z,101900.16
2023-05-09T01:51:26.800Z,101894.88
2023-05-09T01:53:56.732Z,101898.50
2023-05-09T01:56:25.051Z,101886.66
2023-05-09T01:58:53.635Z,101891.78
2023-05-09T02:01:21.066Z,101889.00
2023-05-09T02:03:52.537Z,101894.72
2023-05-09T02:06:21.975Z,101896.22
2023-05-09T02:08:49.651Z,101905.69
2023-05-09T02:11:16.143Z,101892.31
2023-05-09T02:13:42.785Z,101887.69
2023-05-09T02:16:10.257Z,101891.44
2023-05-09T02:18:37.305Z,101884.59
2023-05-09T02:21:04.071Z,101896.84
2023-05-09T02:23:30.736Z,101899.50
2023-05-09T02:25:57.363Z,101888.63
2023-05-09T02:28:27.136Z,101887.06
2023-05-09T02:30:57.018Z,101890.56
2023-05-09T02:33:24.312Z,101894.75
2023-05-09T02:35:51.161Z,101886.09
2023-05-09T02:38:19.138Z,101885.97
2023-05-09T02:40:47.462Z,101885.09
2023-05-09T02:43:15.342Z,101880.91
2023-05-09T02:45:42.108Z,101886.06
2023-05-09T02:48:09.353Z,101884.91
2023-05-09T02:50:38.342Z,101883.25
2023-05-09T02:53:06.106Z,101889.59
2023-05-09T02:55:32.898Z,101882.38
2023-05-09T02:58:11.999Z,101878.81
2023-05-09T03:00:40.112Z,101881.28
2023-05-09T03:03:07.492Z,101862.66
2023-05-09T03:05:34.188Z,101867.50
2023-05-09T03:08:00.631Z,101856.78
2023-05-09T03:10:27.102Z,101856.66
2023-05-09T03:12:53.662Z,101857.84
2023-05-09T03:15:20.986Z,101856.16
2023-05-09T03:17:47.723Z,101854.84
2023-05-09T03:20:15.888Z,101845.84
2023-05-09T03:22:42.413Z,101848.47
2023-05-09T03:25:11.237Z,101836.88
2023-05-09T03:27:38.645Z,101832.22
2023-05-09T03:30:09.275Z,101834.44
2023-05-09T03:32:35.969Z,101830.25
2023-05-09T03:35:02.633Z,101842.19
2023-05-09T03:37:29.088Z,101846.84
2023-05-09T03:39:55.776Z,101844.34
2023-05-09T03:42:22.877Z,101841.50
2023-05-09T03:44:51.163Z,101840.28
2023-05-09T03:47:21.394Z,101837.38
2023-05-09T03:49:48.081Z,101839.84
2023-05-09T03:52:17.456Z,101838.16
2023-05-09T03:54:44.993Z,101846.78
2023-05-09T03:57:11.567Z,101841.50
2023-05-09T03:59:38.087Z,101839.72
2023-05-09T04:02:04.671Z,101844.16
2023-05-09T04:04:31.632Z,101846.06
2023-05-09T04:06:58.717Z,101840.66
2023-05-09T04:09:25.551Z,101842.00
2023-05-09T04:11:54.235Z,101830.03
2023-05-09T04:14:20.941Z,101833.13
2023-05-09T04:16:47.468Z,101830.03
2023-05-09T04:19:14.277Z,101831.50
2023-05-09T04:21:40.831Z,101830.81
2023-05-09T04:24:08.249Z,101824.19
2023-05-09T04:26:40.322Z,101815.22
2023-05-09T04:29:10.552Z,101806.06
2023-05-09T04:31:37.062Z,101810.16
2023-05-09T04:34:04.850Z,101807.09
2023-05-09T04:36:34.071Z,101805.97
2023-05-09T04:39:01.070Z,101804.19
2023-05-09T04:41:29.336Z,101804.06
2023-05-09T04:43:55.921Z,101813.78
2023-05-09T04:46:25.850Z,101825.53
2023-05-09T04:48:52.896Z,101829.13
2023-05-09T04:51:20.393Z,101826.50
2023-05-09T04:53:46.979Z,101827.84
2023-05-09T04:56:14.832Z,101831.25
2023-05-09T04:58:42.526Z,101832.84
2023-05-09T05:01:10.504Z,101825.91
2023-05-09T05:03:37.785Z,101827.63
2023-05-09T05:06:05.574Z,101833.38
2023-05-09T05:08:32.692Z,101829.53
2023-05-09T05:10:59.217Z,101822.75
2023-05-09T05:13:26.092Z,101814.03
2023-05-09T05:15:56.467Z,101811.41
2023-05-09T05:18:23.196Z,101803.22
2023-05-09T05:20:49.694Z,101806.03
2023-05-09T05:23:16.616Z,101794.84
2023-05-09T05:25:43.171Z,101799.88
2023-05-09T05:28:10.105Z,101796.38
2023-05-09T05:30:37.679Z,101789.72
2023-05-09T05:33:04.191Z,101799.81
2023-05-09T05:35:30.879Z,101799.09
2023-05-09T05:37:57.895Z,101794.22
2023-05-09T05:40:25.299Z,101795.50
2023-05-09T05:42:54.272Z,101791.09
2023-05-09T05:45:21.284Z,101785.69
2023-05-09T05:47:51.659Z,101799.19
2023-05-09T05:50:18.764Z,101800.22
2023-05-09T05:52:45.278Z,101793.94
2023-05-09T05:55:15.071Z,101798.44
2023-05-09T05:57:41.834Z,101782.31
2023-05-09T06:00:11.843Z,101785.78
2023-05-09T06:02:47.614Z,101775.78
2023-05-09T06:05:21.714Z,101767.84
2023-05-09T06:07:48.220Z,101755.41
2023-05-09T06:10:16.916Z,101752.63
2023-05-09T06:12:44.811Z,101746.66
2023-05-09T06:15:12.001Z,101747.91
2023-05-09T06:17:41.902Z,101753.50
2023-05-09T06:20:08.808Z,101757.94
2023-05-09T06:22:35.546Z,101751.25
2023-05-09T06:25:02.375Z,101749.88
2023-05-09T06:27:28.991Z,101740.81
2023-05-09T06:29:55.739Z,101740.38
2023-05-09T06:32:22.318Z,101731.34
2023-05-09T06:34:48.935Z,101732.16
2023-05-09T06:37:15.553Z,101731.75
2023-05-09T06:39:42.258Z,101743.56
2023-05-09T06:42:09.506Z,101731.31
2023-05-09T06:44:38.549Z,101737.47
2023-05-09T06:47:04.963Z,101728.38
2023-05-09T06:49:31.769Z,101728.84
2023-05-09T06:51:58.169Z,101720.16
2023-05-09T06:54:24.696Z,101724.00
2023-05-09T06:56:51.140Z,101727.84
2023-05-09T06:59:17.900Z,101718.22
2023-05-09T07:01:44.345Z,101716.66
2023-05-09T07:04:11.151Z,101718.78
2023-05-09T07:06:37.585Z,101713.09
2023-05-09T07:09:04.333Z,101690.63
2023-05-09T07:11:37.225Z,101694.28
2023-05-09T07:14:04.372Z,101695.19
2023-05-09T07:16:30.874Z,101694.09
2023-05-09T07:18:57.352Z,101695.81
2023-05-09T07:21:23.844Z,101690.91
2023-05-09T07:23:50.297Z,101691.28
2023-05-09T07:26:16.884Z,101679.72
2023-05-09T07:28:43.374Z,101667.06
2023-05-09T07:31:10.039Z,101672.69
2023-05-09T07:33:36.598Z,101665.69
2023-05-09T07:36:03.073Z,101668.91
2023-05-09T07:38:29.511Z,101666.34
2023-05-09T07:40:55.942Z,101655.84
2023-05-09T07:43:22.477Z,101653.53
2023-05-09T07:45:49.003Z,101658.22
2023-05-09T07:48:15.788Z,101650.22
2023-05-09T07:50:42.209Z,101644.13
2023-05-09T07:53:09.015Z,101644.97
2023-05-09T07:55:35.374Z,101631.00
2023-05-09T07:58:02.010Z,101630.53
2023-05-09T08:00:28.393Z,101631.09
2023-05-09T08:02:55.248Z,101634.91
2023-05-09T08:05:21.806Z,101625.59
2023-05-09T08:07:48.482Z,101637.75
2023-05-09T08:10:14.976Z,101632.25
2023-05-09T08:12:41.696Z,101621.94
2023-05-09T08:15:08.401Z,101618.47
2023-05-09T08:17:34.977Z,101615.97
2023-05-09T08:20:01.476Z,101617.41
2023-05-09T08:22:28.058Z,101608.06
2023-05-09T08:24:54.544Z,101602.56
2023-05-09T08:27:21.025Z,101615.31
2023-05-09T08:29:47.478Z,101607.25
2023-05-09T08:32:14.310Z,101604.56
2023-05-09T08:34:40.783Z,101604.13
2023-05-09T08:37:07.678Z,101599.84
2023-05-09T08:39:35.183Z,101585.25
2023-05-09T08:42:02.645Z,101594.56
2023-05-09T08:44:30.725Z,101589.91
2023-05-09T08:47:01.414Z,101587.53
2023-05-09T08:49:28.329Z,101585.81
2023-05-09T08:51:56.308Z,101581.41
2023-05-09T08:54:23.900Z,101578.38
2023-05-09T08:56:51.298Z,101570.81
2023-05-09T08:59:19.164Z,101563.25
2023-05-09T09:01:45.874Z,101561.47
2023-05-09T09:04:12.345Z,101559.44
2023-05-09T09:06:40.502Z,101561.38
2023-05-09T09:09:10.792Z,101548.75
2023-05-09T09:11:39.202Z,101552.72
2023-05-09T09:14:15.538Z,101547.31
2023-05-09T09:16:44.973Z,101545.94
2023-05-09T09:19:13.436Z,101547.81
2023-05-09T09:21:45.502Z,101540.09
2023-05-09T09:24:22.032Z,101538.69
2023-05-09T09:26:51.082Z,101535.16
2023-05-09T09:29:18.778Z,101541.44
2023-05-09T09:31:46.853Z,101527.81
2023-05-09T09:34:20.584Z,101515.34
2023-05-09T09:36:48.383Z,101521.59
2023-05-09T09:39:15.209Z,101524.59
2023-05-09T09:41:42.184Z,101517.47
2023-05-09T09:44:09.903Z,101503.00
2023-05-09T09:46:47.435Z,101500.09
2023-05-09T09:49:15.453Z,101497.25
2023-05-09T09:51:42.673Z,101499.56
2023-05-09T09:54:11.143Z,101491.31
2023-05-09T09:56:46.041Z,101493.84
2023-05-09T09:59:21.097Z,101486.44
2023-05-09T10:02:07.981Z,101495.41
2023-05-09T10:04:39.282Z,101475.94
2023-05-09T10:07:12.858Z,101472.69
2023-05-09T10:09:41.495Z,101469.63
2023-05-09T10:12:08.836Z,101466.13
2023-05-09T10:14:36.747Z,101451.47
2023-05-09T10:17:05.053Z,101452.28
2023-05-09T10:19:32.188Z,101445.47
2023-05-09T10:22:04.201Z,101443.00
2023-05-09T10:24:45.338Z,101442.75
2023-05-09T10:27:13.338Z,101441.91
2023-05-09T10:29:51.571Z,101431.41
2023-05-09T10:32:25.683Z,101427.03
2023-05-09T10:34:58.199Z,101422.41
2023-05-09T10:37:24.974Z,101418.44
2023-05-09T10:39:55.443Z,101405.78
2023-05-09T10:42:23.795Z,101412.53
2023-05-09T10:44:51.473Z,101399.88
2023-05-09T10:47:18.946Z,101384.84
2023-05-09T10:49:46.013Z,101380.88
2023-05-09T10:52:12.937Z,101376.97
2023-05-09T10:54:39.381Z,101372.00
2023-05-09T10:57:08.834Z,101366.56
2023-05-09T10:59:42.452Z,101375.38
2023-05-09T11:02:14.127Z,101366.59
2023-05-09T11:04:41.195Z,101356.06
2023-05-09T11:07:26.805Z,101356.44
2023-05-09T11:10:08.059Z,101334.81
2023-05-09T11:12:34.801Z,101335.09
2023-05-09T11:15:06.581Z,101339.94
2023-05-09T11:17:37.956Z,101326.41
2023-05-09T11:20:05.865Z,101331.09
2023-05-09T11:22:43.873Z,101317.69
2023-05-09T11:25:14.964Z,101298.63
2023-05-09T11:27:45.555Z,101304.34
2023-05-09T11:30:14.643Z,101295.34
2023-05-09T11:32:55.894Z,101300.47
2023-05-09T11:35:23.555Z,101298.19
2023-05-09T11:38:04.303Z,101293.00
2023-05-09T11:40:32.319Z,101290.84
2023-05-09T11:42:59.961Z,101277.81
2023-05-09T11:45:31.828Z,101281.41
2023-05-09T11:47:59.398Z,101267.00
2023-05-09T11:50:26.045Z,101274.81
2023-05-09T11:52:53.608Z,101266.63
2023-05-09T11:55:25.186Z,101259.97
2023-05-09T11:57:53.878Z,101262.09
2023-05-09T12:00:22.997Z,101261.50
2023-05-09T12:02:51.430Z,101265.81
2023-05-09T12:05:20.851Z,101266.31
2023-05-09T12:07:48.338Z,101259.16
2023-05-09T12:10:17.033Z,101257.91
2023-05-09T12:12:48.291Z,101245.69
2023-05-09T12:15:15.758Z,101244.78
2023-05-09T12:17:44.325Z,101248.06
2023-05-09T12:20:11.548Z,101245.69
2023-05-09T12:22:38.395Z,101242.22
2023-05-09T12:25:07.666Z,101231.38
2023-05-09T12:27:38.655Z,101243.72
2023-05-09T12:30:08.590Z,101235.63
2023-05-09T12:32:36.701Z,101240.25
2023-05-09T12:35:03.818Z,101234.72
2023-05-09T12:37:32.581Z,101236.53
2023-05-09T12:40:05.022Z,101238.50
2023-05-09T12:42:35.731Z,101234.50
2023-05-09T12:45:07.804Z,101216.97
2023-05-09T12:47:34.530Z,101219.16
2023-05-09T12:50:02.503Z,101222.66
2023-05-09T12:52:54.035Z,101219.72
2023-05-09T12:55:25.320Z,101214.06
2023-05-09T12:58:03.854Z,101208.22
2023-05-09T13:00:42.720Z,101212.88
2023-05-09T13:03:27.359Z,101210.91
2023-05-09T13:05:56.177Z,101207.09
2023-05-09T13:08:23.165Z,101211.19
2023-05-09T13:10:51.052Z,101201.19
2023-05-09T13:13:20.143Z,101190.84
2023-05-09T13:15:46.780Z,101190.09
2023-05-09T13:18:13.593Z,101189.41
2023-05-09T13:20:40.122Z,101180.31
2023-05-09T13:23:06.957Z,101188.84
2023-05-09T13:25:33.507Z,101182.63
2023-05-09T13:28:00.193Z,101178.91
2023-05-09T13:30:26.855Z,101183.22
2023-05-09T13:32:53.578Z,101179.31
2023-05-09T13:35:20.123Z,101163.56
2023-05-09T13:37:46.703Z,101163.88
2023-05-09T13:40:14.027Z,101149.91
2023-05-09T13:42:41.046Z,101164.03
2023-05-09T13:45:08.418Z,101152.16
2023-05-09T13:47:37.305Z,101148.13
2023-05-09T13:50:06.521Z,101153.13
2023-05-09T13:52:32.958Z,101130.44
2023-05-09T13:54:59.529Z,101126.94
2023-05-09T13:57:25.962Z,101126.53
2023-05-09T13:59:52.556Z,101118.06
2023-05-09T14:02:18.974Z,101105.34
2023-05-09T14:04:45.434Z,101106.56
2023-05-09T14:07:13.525Z,101099.41
2023-05-09T14:09:40.390Z,101111.69
2023-05-09T14:12:07.201Z,101103.56
2023-05-09T14:14:33.711Z,101100.16
2023-05-09T14:17:01.434Z,101099.69
2023-05-09T14:19:28.805Z,101103.69
2023-05-09T14:21:55.544Z,101081.97
2023-05-09T14:24:22.079Z,101086.13
2023-05-09T14:26:48.556Z,101077.09
2023-05-09T14:29:16.598Z,101077.03
2023-05-09T14:31:43.114Z,101084.25
2023-05-09T14:34:09.733Z,101084.41
2023-05-09T14:36:37.392Z,101086.25
2023-05-09T14:39:04.123Z,101068.03
2023-05-09T14:41:30.647Z,101065.81
2023-05-09T14:43:57.128Z,101061.13
2023-05-09T14:46:24.891Z,101062.94
2023-05-09T14:48:53.213Z,101053.41
2023-05-09T14:51:19.746Z,101048.16
2023-05-09T14:53:47.232Z,101040.59
2023-05-09T14:56:13.904Z,101046.59
2023-05-09T14:58:40.624Z,101028.66
2023-05-09T15:01:07.178Z,101028.75
2023-05-09T15:03:33.951Z,101026.66
2023-05-09T15:06:00.482Z,101024.06
2023-05-09T15:08:27.293Z,101014.94
2023-05-09T15:10:53.790Z,101004.63
2023-05-09T15:13:20.979Z,101017.50
2023-05-09T15:15:47.768Z,101016.69
2023-05-09T15:18:16.463Z,101025.28
2023-05-09T15:20:43.250Z,101014.50
2023-05-09T15:23:10.787Z,100994.50
2023-05-09T15:25:37.347Z,100991.91
2023-05-09T15:28:04.308Z,100990.28
2023-05-09T15:30:30.833Z,100997.41
2023-05-09T15:32:57.599Z,100992.25
2023-05-09T15:35:24.225Z,100982.03
2023-05-09T15:37:50.773Z,100982.25
2023-05-09T15:40:17.401Z,100981.31
2023-05-09T15:42:44.240Z,100983.97
2023-05-09T15:45:10.803Z,100970.28
2023-05-09T15:47:37.456Z,100975.78
2023-05-09T15:50:04.476Z,100967.56
2023-05-09T15:52:31.270Z,100962.00
2023-05-09T15:54:57.969Z,100966.34
2023-05-09T15:57:25.020Z,100967.31
2023-05-09T15:59:54.312Z,100964.06
2023-05-09T16:02:21.783Z,100957.38
2023-05-09T16:04:48.273Z,100953.03
2023-05-09T16:07:14.791Z,100949.75
2023-05-09T16:09:41.254Z,100956.78
2023-05-09T16:12:08.036Z,100954.34
2023-05-09T16:14:34.547Z,100957.00
2023-05-09T16:17:02.535Z,100956.31
2023-05-09T16:19:29.034Z,100940.94
2023-05-09T16:21:56.349Z,100944.50
2023-05-09T16:24:22.909Z,100924.50
2023-05-09T16:26:49.608Z,100925.94
2023-05-09T16:29:16.133Z,100933.09
2023-05-09T16:31:44.949Z,100919.97
2023-05-09T16:34:11.429Z,100920.31
2023-05-09T16:36:38.326Z,100910.84
2023-05-09T16:39:05.069Z,100909.50
2023-05-09T16:41:31.826Z,100905.03
2023-05-09T16:43:58.928Z,100910.72
2023-05-09T16:46:25.640Z,100904.41
2023-05-09T16:48:52.304Z,100908.41
2023-05-09T16:51:18.964Z,100909.59
2023-05-09T16:53:45.402Z,100909.72
2023-05-09T16:56:11.974Z,100900.19
2023-05-09T16:58:39.288Z,100907.34
2023-05-09T17:01:06.084Z,100907.53
2023-05-09T17:03:32.567Z,100898.47
2023-05-09T17:05:59.042Z,100886.78
2023-05-09T17:08:25.471Z,100895.06
2023-05-09T17:10:51.924Z,100883.38
2023-05-09T17:13:18.878Z,100892.38
2023-05-09T17:15:45.644Z,100893.66
2023-05-09T17:18:15.300Z,100892.91
2023-05-09T17:20:46.161Z,100888.47
2023-05-09T17:23:12.605Z,100886.69
2023-05-09T17:25:39.263Z,100885.56
2023-05-09T17:28:05.693Z,100883.09
2023-05-09T17:30:32.311Z,100870.50
2023-05-09T17:32:58.841Z,100882.41
2023-05-09T17:35:25.800Z,100871.09
2023-05-09T17:37:52.283Z,100864.31
2023-05-09T17:40:18.911Z,100871.22
2023-05-09T17:42:45.323Z,100859.88
2023-05-09T17:45:12.315Z,100861.81
2023-05-09T17:47:39.557Z,100863.25
2023-05-09T17:50:07.127Z,100865.16
2023-05-09T17:52:34.205Z,100867.63
2023-05-09T17:55:01.196Z,100860.59
2023-05-09T17:57:28.309Z,100865.44
2023-05-09T17:59:54.824Z,100861.28
2023-05-09T18:02:23.909Z,100869.81
2023-05-09T18:04:51.135Z,100872.13
2023-05-09T18:07:17.584Z,100875.41
2023-05-09T18:09:43.985Z,100872.13
2023-05-09T18:12:10.481Z,100877.19
2023-05-09T18:14:38.856Z,100881.28
2023-05-09T18:17:05.515Z,100877.22
2023-05-09T18:19:31.947Z,100874.94
2023-05-09T18:21:58.439Z,100867.38
2023-05-09T18:24:25.217Z,100867.81
2023-05-09T18:26:51.911Z,100865.16
2023-05-09T18:29:18.364Z,100863.38
2023-05-09T18:31:45.016Z,100861.56
2023-05-09T18:34:11.604Z,100864.22
2023-05-09T18:36:38.139Z,100870.25
2023-05-09T18:39:04.629Z,100862.22
2023-05-09T18:41:31.964Z,100861.59
2023-05-09T18:43:58.564Z,100859.34
2023-05-09T18:46:27.721Z,100858.69
2023-05-09T18:48:54.291Z,100853.97
2023-05-09T18:51:20.894Z,100855.63
2023-05-09T18:53:47.583Z,100862.66
2023-05-09T18:56:14.366Z,100871.75
2023-05-09T18:58:41.366Z,100878.94
2023-05-09T19:01:11.304Z,100872.13
2023-05-09T19:03:45.556Z,100878.72
2023-05-09T19:06:13.587Z,100867.22
2023-05-09T19:08:41.643Z,100881.41
2023-05-09T19:11:08.126Z,100870.50
2023-05-09T19:13:38.154Z,100876.25
2023-05-09T19:16:06.667Z,100881.19
2023-05-09T19:18:33.931Z,100870.91
2023-05-09T19:21:00.705Z,100876.81
2023-05-09T19:23:27.301Z,100873.50
2023-05-09T19:25:53.925Z,100874.94
2023-05-09T19:28:21.450Z,100872.06
2023-05-09T19:30:47.966Z,100876.59
2023-05-09T19:33:14.984Z,100876.75
2023-05-09T19:35:42.240Z,100872.66
2023-05-09T19:38:09.162Z,100875.13
2023-05-09T19:40:35.628Z,100866.66
2023-05-09T19:43:02.401Z,100874.44
2023-05-09T19:45:28.836Z,100869.91
2023-05-09T19:47:55.574Z,100871.53
2023-05-09T19:50:22.134Z,100868.25
2023-05-09T19:52:48.732Z,100867.41
2023-05-09T19:55:15.240Z,100865.53
2023-05-09T19:57:41.862Z,100867.56
2023-05-09T20:00:08.804Z,100862.59
2023-05-09T20:02:35.767Z,100861.56
2023-05-09T20:05:02.340Z,100871.00
2023-05-09T20:07:29.714Z,100864.63
2023-05-09T20:09:56.154Z,100869.06
2023-05-09T20:12:22.786Z,100868.31
2023-05-09T20:14:49.216Z,100862.88
2023-05-09T20:17:16.184Z,100862.88
2023-05-09T20:19:42.658Z,100868.56
2023-05-09T20:22:09.137Z,100858.06
2023-05-09T20:24:35.536Z,100853.72
2023-05-09T20:27:04.936Z,100853.94
2023-05-09T20:29:31.352Z,100852.66
2023-05-09T20:31:57.970Z,100842.00
2023-05-09T20:34:24.672Z,100844.41
2023-05-09T20:36:53.704Z,100843.16
2023-05-09T20:39:21.070Z,100844.59
2023-05-09T20:41:48.353Z,100851.97
2023-05-09T20:44:16.007Z,100843.53
2023-05-09T20:46:42.580Z,100849.91
2023-05-09T20:49:09.186Z,100841.00
2023-05-09T20:51:35.834Z,100838.59
2023-05-09T20:54:02.428Z,100839.00
2023-05-09T20:56:29.152Z,100835.94
2023-05-09T20:58:56.476Z,100841.00
2023-05-09T21:01:22.990Z,100838.13
2023-05-09T21:03:49.470Z,100829.47
2023-05-09T21:06:16.189Z,100830.66
2023-05-09T21:08:43.249Z,100821.81
2023-05-09T21:11:09.771Z,100819.16
2023-05-09T21:13:37.186Z,100828.22
2023-05-09T21:16:03.872Z,100823.25
2023-05-09T21:18:30.523Z,100819.31
2023-05-09T21:20:57.274Z,100820.13
2023-05-09T21:23:23.692Z,100820.66
2023-05-09T21:25:50.460Z,100821.66
2023-05-09T21:28:17.306Z,100821.22
2023-05-09T21:30:43.829Z,100815.81
2023-05-09T21:33:10.678Z,100817.69
2023-05-09T21:35:37.130Z,100807.34
2023-05-09T21:38:03.651Z,100800.31
2023-05-09T21:40:30.045Z,100808.19
2023-05-09T21:42:56.755Z,100795.59
2023-05-09T21:45:23.301Z,100799.09
2023-05-09T21:47:49.951Z,100788.44
2023-05-09T21:50:16.886Z,100791.66
2023-05-09T21:52:43.924Z,100792.19
2023-05-09T21:55:10.582Z,100793.22
2023-05-09T21:57:37.044Z,100786.25
2023-05-09T22:00:05.626Z,100776.75
2023-05-09T22:02:42.572Z,100782.16
2023-05-09T22:05:10.143Z,100771.00
2023-05-09T22:07:37.218Z,100776.31
2023-05-09T22:10:04.590Z,100773.41
2023-05-09T22:12:31.591Z,100767.44
2023-05-09T22:14:58.023Z,100775.91
2023-05-09T22:17:24.816Z,100769.72
2023-05-09T22:19:52.116Z,100777.91
2023-05-09T22:22:19.012Z,100768.41
2023-05-09T22:24:45.476Z,100771.75
2023-05-09T22:27:12.250Z,100765.53
2023-05-09T22:29:38.893Z,100770.84
2023-05-09T22:32:07.762Z,100771.25
2023-05-09T22:34:35.046Z,100769.22
2023-05-09T22:37:01.817Z,100761.41
2023-05-09T22:39:28.294Z,100768.91
2023-05-09T22:41:54.904Z,100758.81
2023-05-09T22:44:21.774Z,100757.97
2023-05-09T22:46:48.388Z,100760.22
2023-05-09T22:49:14.805Z,100756.91
2023-05-09T22:51:41.240Z,100759.94
2023-05-09T22:54:07.716Z,100757.50
2023-05-09T22:56:34.323Z,100758.94
2023-05-09T22:59:00.895Z,100754.19
2023-05-09T23:01:27.581Z,100750.84
2023-05-09T23:03:54.176Z,100754.84
2023-05-09T23:06:20.968Z,100758.44
2023-05-09T23:08:47.470Z,100754.09
2023-05-09T23:11:13.980Z,100753.03
2023-05-09T23:13:40.548Z,100749.25
2023-05-09T23:16:07.169Z,100746.78
2023-05-09T23:18:33.633Z,100743.63
2023-05-09T23:21:00.245Z,100744.09
2023-05-09T23:23:27.093Z,100745.91
2023-05-09T23:25:53.812Z,100743.63
2023-05-09T23:28:24.827Z,100747.66
2023-05-09T23:30:53.255Z,100739.06
2023-05-09T23:33:19.873Z,100741.16
2023-05-09T23:35:46.558Z,100743.19
2023-05-09T23:38:13.003Z,100746.47
2023-05-09T23:40:40.555Z,100742.53
2023-05-09T23:43:06.979Z,100760.53
2023-05-09T23:45:33.852Z,100755.41
2023-05-09T23:48:00.394Z,100754.75
2023-05-09T23:50:26.926Z,100761.53
2023-05-09T23:52:53.346Z,100754.66
2023-05-09T23:55:20.032Z,100754.47
2023-05-09T23:57:46.969Z,100755.88
